createdAt,value
2023-05-04T00:00:24.323Z,23.18
2023-05-04T00:01:24.319Z,23.17
2023-05-04T00:02:24.335Z,23.16
2023-05-04T00:03:24.456Z,23.16
2023-05-04T00:04:24.289Z,23.16
2023-05-04T00:05:24.248Z,23.16
2023-05-04T00:06:24.668Z,23.16
2023-05-04T00:07:24.262Z,23.16
2023-05-04T00:08:24.225Z,23.16
2023-05-04T00:09:24.239Z,23.16
2023-05-04T00:10:24.248Z,23.15
2023-05-04T00:11:24.660Z,23.15
2023-05-04T00:12:24.240Z,23.14
2023-05-04T00:13:24.208Z,23.15
2023-05-04T00:14:24.198Z,23.14
2023-05-04T00:15:24.223Z,23.14
2023-05-04T00:16:24.223Z,23.14
2023-05-04T00:17:24.223Z,23.14
2023-05-04T00:18:24.289Z,23.13
2023-05-04T00:19:24.160Z,23.12
2023-05-04T00:20:24.183Z,23.13
2023-05-04T00:21:24.157Z,23.13
2023-05-04T00:22:24.147Z,23.12
2023-05-04T00:23:24.165Z,23.12
2023-05-04T00:24:24.144Z,23.12
2023-05-04T00:25:24.149Z,23.12
2023-05-04T00:26:24.168Z,23.12
2023-05-04T00:27:24.140Z,23.12
2023-05-04T00:28:24.119Z,23.11
2023-05-04T00:29:24.113Z,23.11
2023-05-04T00:30:24.107Z,23.12
2023-05-04T00:31:24.127Z,23.11
2023-05-04T00:32:24.137Z,23.10
2023-05-04T00:33:24.125Z,23.10
2023-05-04T00:34:24.102Z,23.10
2023-05-04T00:35:24.083Z,23.09
2023-05-04T00:36:24.148Z,23.09
2023-05-04T00:37:24.091Z,23.09
2023-05-04T00:38:24.108Z,23.09
2023-05-04T00:39:24.062Z,23.09
2023-05-04T00:40:24.078Z,23.08
2023-05-04T00:41:24.053Z,23.08
2023-05-04T00:42:24.061Z,23.08
2023-05-04T00:43:24.082Z,23.08
2023-05-04T00:44:24.226Z,23.08
2023-05-04T00:45:24.111Z,23.07
2023-05-04T00:46:24.116Z,23.07
2023-05-04T00:47:24.792Z,23.06
2023-05-04T00:48:24.109Z,23.07
2023-05-04T00:49:24.071Z,23.06
2023-05-04T00:50:24.089Z,23.06
2023-05-04T00:51:24.148Z,23.06
2023-05-04T00:52:24.140Z,23.06
2023-05-04T00:53:24.128Z,23.06
2023-05-04T00:54:24.214Z,23.06
2023-05-04T00:55:24.108Z,23.05
2023-05-04T00:56:24.676Z,23.06
2023-05-04T00:57:24.322Z,23.05
2023-05-04T00:58:24.195Z,23.05
2023-05-04T00:59:24.224Z,23.04
2023-05-04T01:00:24.240Z,23.04
2023-05-04T01:01:24.274Z,23.04
2023-05-04T01:02:24.290Z,23.03
2023-05-04T01:03:24.309Z,23.03
2023-05-04T01:04:24.267Z,23.03
2023-05-04T01:05:24.258Z,23.03
2023-05-04T01:06:24.280Z,23.03
2023-05-04T01:07:24.313Z,23.02
2023-05-04T01:08:24.321Z,23.02
2023-05-04T01:09:24.313Z,23.02
2023-05-04T01:10:24.368Z,23.01
2023-05-04T01:11:24.388Z,23.01
2023-05-04T01:12:24.395Z,23.01
2023-05-04T01:13:24.402Z,23.01
2023-05-04T01:14:24.401Z,23.00
2023-05-04T01:15:24.419Z,23.01
2023-05-04T01:16:25.194Z,23.01
2023-05-04T01:17:24.469Z,23.00
2023-05-04T01:18:24.382Z,23.00
2023-05-04T01:19:24.406Z,23.00
2023-05-04T01:20:24.388Z,23.00
2023-05-04T01:21:24.392Z,23.00
2023-05-04T01:22:24.392Z,22.98
2023-05-04T01:23:24.390Z,22.99
2023-05-04T01:24:24.406Z,22.99
2023-05-04T01:25:24.429Z,22.98
2023-05-04T01:26:24.695Z,22.98
2023-05-04T01:27:24.438Z,22.98
2023-05-04T01:28:24.431Z,22.98
2023-05-04T01:29:24.453Z,22.98
2023-05-04T01:30:24.428Z,22.98
2023-05-04T01:31:24.581Z,22.97
2023-05-04T01:32:24.460Z,22.98
2023-05-04T01:33:24.428Z,22.97
2023-05-04T01:34:24.389Z,22.97
2023-05-04T01:35:24.416Z,22.96
2023-05-04T01:36:24.455Z,22.97
2023-05-04T01:37:24.435Z,22.96
2023-05-04T01:38:24.485Z,22.96
2023-05-04T01:39:24.427Z,22.96
2023-05-04T01:40:24.443Z,22.96
2023-05-04T01:41:24.502Z,22.95
2023-05-04T01:42:24.460Z,22.95
2023-05-04T01:43:24.468Z,22.95
2023-05-04T01:44:24.478Z,22.95
2023-05-04T01:45:24.482Z,22.94
2023-05-04T01:46:24.550Z,22.94
2023-05-04T01:47:24.519Z,22.94
2023-05-04T01:48:24.468Z,22.94
2023-05-04T01:49:24.487Z,22.94
2023-05-04T01:50:24.468Z,22.94
2023-05-04T01:51:24.563Z,22.93
2023-05-04T01:52:24.515Z,22.93
2023-05-04T01:53:24.493Z,22.93
2023-05-04T01:54:24.522Z,22.93
2023-05-04T01:55:24.472Z,22.93
2023-05-04T01:56:24.494Z,22.93
2023-05-04T01:57:24.493Z,22.92
2023-05-04T01:58:24.456Z,22.92
2023-05-04T01:59:24.477Z,22.92
2023-05-04T02:00:24.517Z,22.91
2023-05-04T02:01:24.529Z,22.91
2023-05-04T02:02:24.534Z,22.91
2023-05-04T02:03:24.575Z,22.91
2023-05-04T02:04:24.540Z,22.91
2023-05-04T02:05:24.549Z,22.90
2023-05-04T02:06:24.555Z,22.90
2023-05-04T02:07:24.610Z,22.89
2023-05-04T02:08:24.535Z,22.91
2023-05-04T02:09:24.557Z,22.89
2023-05-04T02:10:24.615Z,22.89
2023-05-04T02:11:24.625Z,22.89
2023-05-04T02:12:24.613Z,22.89
2023-05-04T02:13:24.598Z,22.89
2023-05-04T02:14:24.573Z,22.89
2023-05-04T02:15:24.632Z,22.89
2023-05-04T02:16:24.668Z,22.89
2023-05-04T02:17:24.749Z,22.89
2023-05-04T02:18:24.583Z,22.87
2023-05-04T02:19:24.610Z,22.88
2023-05-04T02:20:24.652Z,22.88
2023-05-04T02:21:24.608Z,22.87
2023-05-04T02:22:24.589Z,22.87
2023-05-04T02:23:24.601Z,22.87
2023-05-04T02:24:24.615Z,22.87
2023-05-04T02:25:24.632Z,22.87
2023-05-04T02:26:24.630Z,22.86
2023-05-04T02:27:24.703Z,22.86
2023-05-04T02:28:24.635Z,22.86
2023-05-04T02:29:24.647Z,22.86
2023-05-04T02:30:24.665Z,22.85
2023-05-04T02:31:24.650Z,22.86
2023-05-04T02:32:24.646Z,22.85
2023-05-04T02:33:24.651Z,22.85
2023-05-04T02:34:24.692Z,22.86
2023-05-04T02:35:24.649Z,22.85
2023-05-04T02:36:24.723Z,22.85
2023-05-04T02:37:24.727Z,22.85
2023-05-04T02:38:24.703Z,22.84
2023-05-04T02:39:24.737Z,22.84
2023-05-04T02:40:24.692Z,22.84
2023-05-04T02:41:24.700Z,22.84
2023-05-04T02:42:24.709Z,22.84
2023-05-04T02:43:24.708Z,22.83
2023-05-04T02:44:24.727Z,22.84
2023-05-04T02:45:24.776Z,22.84
2023-05-04T02:46:24.742Z,22.83
2023-05-04T02:47:24.859Z,22.84
2023-05-04T02:48:24.744Z,22.83
2023-05-04T02:49:24.748Z,22.84
2023-05-04T02:50:24.710Z,22.83
2023-05-04T02:51:24.711Z,22.83
2023-05-04T02:52:24.724Z,22.83
2023-05-04T02:53:24.716Z,22.83
2023-05-04T02:54:24.718Z,22.82
2023-05-04T02:55:24.753Z,22.82
2023-05-04T02:56:24.744Z,22.82
2023-05-04T02:57:24.743Z,22.82
2023-05-04T02:58:24.696Z,22.82
2023-05-04T02:59:24.730Z,22.82
2023-05-04T03:00:24.739Z,22.82
2023-05-04T03:01:24.768Z,22.82
2023-05-04T03:02:24.786Z,22.81
2023-05-04T03:03:24.734Z,22.81
2023-05-04T03:04:24.728Z,22.81
2023-05-04T03:05:24.753Z,22.81
2023-05-04T03:06:24.726Z,22.81
2023-05-04T03:07:24.794Z,22.80
2023-05-04T03:08:24.794Z,22.81
2023-05-04T03:09:24.792Z,22.81
2023-05-04T03:10:24.812Z,22.81
2023-05-04T03:11:24.806Z,22.80
2023-05-04T03:12:24.807Z,22.80
2023-05-04T03:13:24.826Z,22.80
2023-05-04T03:14:24.891Z,22.80
2023-05-04T03:15:24.839Z,22.80
2023-05-04T03:16:24.864Z,22.80
2023-05-04T03:17:24.900Z,22.80
2023-05-04T03:18:24.898Z,22.80
2023-05-04T03:19:24.911Z,22.79
2023-05-04T03:20:24.918Z,22.80
2023-05-04T03:21:24.902Z,22.80
2023-05-04T03:22:24.914Z,22.80
2023-05-04T03:23:24.942Z,22.79
2023-05-04T03:24:24.997Z,22.80
2023-05-04T03:25:24.994Z,22.80
2023-05-04T03:26:25.694Z,22.79
2023-05-04T03:27:24.967Z,22.79
2023-05-04T03:28:24.955Z,22.79
2023-05-04T03:29:24.993Z,22.79
2023-05-04T03:30:24.975Z,22.78
2023-05-04T03:31:25.017Z,22.78
2023-05-04T03:32:25.277Z,22.78
2023-05-04T03:33:24.993Z,22.78
2023-05-04T03:34:24.974Z,22.77
2023-05-04T03:35:25.375Z,22.77
2023-05-04T03:36:24.958Z,22.77
2023-05-04T03:37:25.222Z,22.77
2023-05-04T03:38:24.995Z,22.77
2023-05-04T03:39:25.000Z,22.77
2023-05-04T03:40:25.010Z,22.77
2023-05-04T03:41:25.033Z,22.76
2023-05-04T03:42:25.035Z,22.77
2023-05-04T03:43:25.001Z,22.77
2023-05-04T03:44:25.025Z,22.76
2023-05-04T03:45:25.009Z,22.76
2023-05-04T03:46:25.099Z,22.76
2023-05-04T03:47:25.258Z,22.75
2023-05-04T03:48:25.066Z,22.76
2023-05-04T03:49:25.033Z,22.76
2023-05-04T03:50:25.025Z,22.76
2023-05-04T03:51:25.020Z,22.75
2023-05-04T03:52:25.245Z,22.75
2023-05-04T03:53:25.070Z,22.76
2023-05-04T03:54:25.045Z,22.75
2023-05-04T03:55:25.068Z,22.74
2023-05-04T03:56:25.070Z,22.74
2023-05-04T03:57:25.117Z,22.74
2023-05-04T03:58:25.078Z,22.73
2023-05-04T03:59:25.083Z,22.74
2023-05-04T04:00:25.095Z,22.74
2023-05-04T04:01:25.096Z,22.74
2023-05-04T04:02:25.150Z,22.74
2023-05-04T04:03:25.229Z,22.74
2023-05-04T04:04:25.738Z,22.74
2023-05-04T04:05:25.127Z,22.74
2023-05-04T04:06:25.177Z,22.73
2023-05-04T04:07:25.288Z,22.73
2023-05-04T04:08:25.102Z,22.74
2023-05-04T04:09:25.112Z,22.74
2023-05-04T04:10:25.126Z,22.74
2023-05-04T04:11:25.122Z,22.74
2023-05-04T04:12:25.234Z,22.74
2023-05-04T04:13:25.159Z,22.74
2023-05-04T04:14:25.146Z,22.74
2023-05-04T04:15:25.174Z,22.74
2023-05-04T04:16:25.239Z,22.74
2023-05-04T04:17:25.254Z,22.74
2023-05-04T04:18:25.202Z,22.73
2023-05-04T04:19:25.181Z,22.74
2023-05-04T04:20:25.195Z,22.74
2023-05-04T04:21:25.206Z,22.73
2023-05-04T04:22:25.217Z,22.74
2023-05-04T04:23:25.211Z,22.74
2023-05-04T04:24:25.231Z,22.74
2023-05-04T04:25:25.260Z,22.75
2023-05-04T04:26:25.339Z,22.76
2023-05-04T04:27:25.743Z,22.76
2023-05-04T04:28:25.248Z,22.76
2023-05-04T04:29:25.260Z,22.76
2023-05-04T04:30:25.256Z,22.76
2023-05-04T04:31:25.308Z,22.76
2023-05-04T04:32:25.739Z,22.77
2023-05-04T04:33:25.290Z,22.76
2023-05-04T04:34:25.291Z,22.77
2023-05-04T04:35:25.307Z,22.77
2023-05-04T04:36:25.326Z,22.78
2023-05-04T04:37:25.345Z,22.77
2023-05-04T04:38:25.324Z,22.77
2023-05-04T04:39:25.354Z,22.77
2023-05-04T04:40:25.337Z,22.78
2023-05-04T04:41:25.327Z,22.79
2023-05-04T04:42:25.752Z,22.79
2023-05-04T04:43:25.351Z,22.80
2023-05-04T04:44:25.328Z,22.80
2023-05-04T04:45:25.322Z,22.80
2023-05-04T04:46:25.337Z,22.80
2023-05-04T04:47:25.376Z,22.82
2023-05-04T04:48:25.346Z,22.81
2023-05-04T04:49:25.352Z,22.83
2023-05-04T04:50:26.327Z,22.83
2023-05-04T04:51:25.326Z,22.83
2023-05-04T04:52:25.331Z,22.84
2023-05-04T04:53:25.315Z,22.85
2023-05-04T04:54:25.393Z,22.85
2023-05-04T04:55:25.327Z,22.85
2023-05-04T04:56:25.347Z,22.83
2023-05-04T04:57:25.412Z,22.83
2023-05-04T04:58:25.393Z,22.83
2023-05-04T04:59:25.470Z,22.83
2023-05-04T05:00:25.475Z,22.82
2023-05-04T05:01:25.575Z,22.83
2023-05-04T05:02:25.560Z,22.83
2023-05-04T05:03:25.549Z,22.85
2023-05-04T05:04:25.587Z,22.84
2023-05-04T05:05:25.611Z,22.85
2023-05-04T05:06:25.621Z,22.85
2023-05-04T05:07:26.295Z,22.86
2023-05-04T05:08:25.691Z,22.86
2023-05-04T05:09:25.689Z,22.86
2023-05-04T05:10:25.805Z,22.84
2023-05-04T05:11:25.824Z,22.85
2023-05-04T05:12:26.287Z,22.81
2023-05-04T05:13:25.861Z,22.83
2023-05-04T05:14:25.937Z,22.82
2023-05-04T05:15:25.985Z,22.80
2023-05-04T05:16:26.009Z,22.80
2023-05-04T05:17:26.820Z,22.80
2023-05-04T05:18:26.068Z,22.81
2023-05-04T05:19:26.135Z,22.82
2023-05-04T05:20:26.224Z,22.83
2023-05-04T05:21:26.195Z,22.84
2023-05-04T05:22:26.205Z,22.86
2023-05-04T05:23:26.252Z,22.87
2023-05-04T05:24:26.273Z,22.88
2023-05-04T05:25:26.303Z,22.88
2023-05-04T05:26:26.314Z,22.89
2023-05-04T05:27:26.779Z,22.89
2023-05-04T05:28:26.386Z,22.92
2023-05-04T05:29:26.450Z,22.91
2023-05-04T05:30:26.450Z,22.93
2023-05-04T05:31:26.551Z,22.93
2023-05-04T05:32:26.823Z,22.94
2023-05-04T05:33:26.538Z,22.95
2023-05-04T05:34:26.507Z,22.95
2023-05-04T05:35:27.300Z,22.96
2023-05-04T05:36:26.552Z,22.97
2023-05-04T05:37:26.573Z,22.98
2023-05-04T05:38:26.635Z,22.99
2023-05-04T05:39:26.622Z,22.99
2023-05-04T05:40:26.621Z,23.00
2023-05-04T05:41:26.629Z,23.01
2023-05-04T05:42:26.642Z,23.02
2023-05-04T05:43:26.675Z,23.03
2023-05-04T05:44:26.666Z,23.03
2023-05-04T05:45:26.672Z,23.05
2023-05-04T05:46:26.720Z,22.96
2023-05-04T05:47:26.790Z,22.96
2023-05-04T05:48:26.737Z,22.98
2023-05-04T05:49:26.756Z,22.96
2023-05-04T05:50:26.757Z,22.95
2023-05-04T05:51:26.791Z,22.95
2023-05-04T05:52:27.250Z,23.00
2023-05-04T05:53:26.775Z,23.07
2023-05-04T05:54:26.823Z,23.10
2023-05-04T05:55:26.842Z,23.14
2023-05-04T05:56:26.791Z,23.20
2023-05-04T05:57:26.796Z,23.28
2023-05-04T05:58:26.868Z,23.34
2023-05-04T05:59:26.918Z,23.42
2023-05-04T06:00:26.957Z,23.46
2023-05-04T06:01:27.037Z,23.52
2023-05-04T06:02:27.344Z,23.59
2023-05-04T06:03:27.297Z,23.65
2023-05-04T06:04:27.184Z,23.70
2023-05-04T06:05:27.176Z,23.74
2023-05-04T06:06:27.210Z,23.78
2023-05-04T06:07:27.319Z,23.84
2023-05-04T06:08:27.291Z,23.88
2023-05-04T06:09:27.267Z,23.91
2023-05-04T06:10:27.270Z,23.95
2023-05-04T06:11:27.350Z,23.97
2023-05-04T06:12:27.368Z,24.00
2023-05-04T06:13:27.343Z,24.01
2023-05-04T06:14:27.363Z,24.02
2023-05-04T06:15:27.373Z,23.99
2023-05-04T06:16:27.448Z,23.96
2023-05-04T06:17:27.778Z,23.96
2023-05-04T06:18:27.436Z,23.96
2023-05-04T06:19:28.061Z,23.98
2023-05-04T06:20:27.451Z,23.98
2023-05-04T06:21:27.486Z,23.99
2023-05-04T06:22:27.525Z,24.00
2023-05-04T06:23:27.489Z,24.00
2023-05-04T06:24:27.524Z,24.01
2023-05-04T06:25:27.468Z,24.02
2023-05-04T06:26:27.488Z,24.04
2023-05-04T06:27:27.534Z,24.05
2023-05-04T06:28:27.549Z,24.08
2023-05-04T06:29:27.540Z,24.10
2023-05-04T06:30:27.509Z,24.12
2023-05-04T06:31:27.607Z,24.14
2023-05-04T06:32:27.850Z,24.14
2023-05-04T06:33:27.571Z,24.16
2023-05-04T06:34:27.593Z,24.17
2023-05-04T06:35:27.548Z,24.19
2023-05-04T06:36:27.553Z,24.20
2023-05-04T06:37:27.780Z,24.22
2023-05-04T06:38:27.562Z,24.25
2023-05-04T06:39:27.563Z,24.26
2023-05-04T06:40:27.598Z,24.28
2023-05-04T06:41:27.573Z,24.28
2023-05-04T06:42:27.758Z,24.30
2023-05-04T06:43:27.626Z,24.30
2023-05-04T06:44:27.642Z,24.32
2023-05-04T06:45:27.800Z,24.32
2023-05-04T06:46:27.724Z,24.32
2023-05-04T06:47:27.864Z,24.35
2023-05-04T06:48:27.868Z,24.37
2023-05-04T06:49:27.926Z,24.38
2023-05-04T06:50:27.988Z,24.40
2023-05-04T06:51:28.081Z,24.42
2023-05-04T06:52:28.332Z,24.43
2023-05-04T06:53:28.246Z,24.43
2023-05-04T06:54:28.255Z,24.46
2023-05-04T06:55:28.305Z,24.47
2023-05-04T06:56:28.312Z,24.46
2023-05-04T06:57:28.826Z,24.46
2023-05-04T06:58:28.529Z,24.43
2023-05-04T06:59:28.493Z,24.43
2023-05-04T07:00:28.509Z,24.44
2023-05-04T07:01:28.627Z,24.46
2023-05-04T07:02:28.770Z,24.47
2023-05-04T07:03:28.753Z,24.48
2023-05-04T07:04:28.759Z,24.49
2023-05-04T07:05:28.773Z,24.51
2023-05-04T07:06:28.843Z,24.51
2023-05-04T07:07:29.299Z,24.51
2023-05-04T07:08:28.887Z,24.51
2023-05-04T07:09:28.888Z,24.53
2023-05-04T07:10:28.966Z,24.52
2023-05-04T07:11:29.024Z,24.51
2023-05-04T07:12:29.036Z,24.51
2023-05-04T07:13:29.086Z,24.53
2023-05-04T07:14:29.136Z,24.54
2023-05-04T07:15:29.198Z,24.55
2023-05-04T07:16:29.277Z,24.57
2023-05-04T07:17:29.230Z,24.58
2023-05-04T07:18:29.265Z,24.60
2023-05-04T07:19:29.284Z,24.61
2023-05-04T07:20:29.350Z,24.62
2023-05-04T07:21:29.870Z,24.64
2023-05-04T07:22:29.395Z,24.64
2023-05-04T07:23:29.461Z,24.62
2023-05-04T07:24:29.487Z,24.61
2023-05-04T07:25:29.511Z,24.62
2023-05-04T07:26:29.539Z,24.62
2023-05-04T07:27:29.590Z,24.62
2023-05-04T07:28:29.596Z,24.61
2023-05-04T07:29:29.601Z,24.63
2023-05-04T07:30:29.669Z,24.66
2023-05-04T07:31:30.632Z,24.67
2023-05-04T07:32:29.841Z,24.69
2023-05-04T07:33:29.754Z,24.70
2023-05-04T07:34:41.953Z,24.72
2023-05-04T07:35:30.730Z,24.72
2023-05-04T07:36:29.778Z,24.74
2023-05-04T07:37:29.721Z,24.75
2023-05-04T07:38:29.782Z,24.74
2023-05-04T07:39:29.736Z,24.74
2023-05-04T07:40:29.717Z,24.73
2023-05-04T07:41:29.724Z,24.74
2023-05-04T07:42:29.697Z,24.74
2023-05-04T07:43:29.797Z,24.76
2023-05-04T07:44:29.668Z,24.76
2023-05-04T07:45:29.728Z,24.76
2023-05-04T07:46:29.700Z,24.76
2023-05-04T07:47:29.669Z,24.74
2023-05-04T07:48:29.819Z,24.74
2023-05-04T07:49:29.645Z,24.72
2023-05-04T07:50:29.681Z,24.68
2023-05-04T07:51:29.629Z,24.65
2023-05-04T07:52:29.624Z,24.65
2023-05-04T07:53:29.811Z,24.62
2023-05-04T07:54:29.648Z,24.62
2023-05-04T07:55:29.649Z,24.64
2023-05-04T07:56:29.697Z,24.65
2023-05-04T07:57:29.701Z,24.66
2023-05-04T07:58:29.835Z,24.68
2023-05-04T07:59:29.847Z,24.67
2023-05-04T08:00:29.834Z,24.69
2023-05-04T08:01:29.825Z,24.69
2023-05-04T08:02:29.915Z,24.70
2023-05-04T08:03:30.377Z,24.71
2023-05-04T08:04:29.955Z,24.72
2023-05-04T08:05:30.091Z,24.72
2023-05-04T08:06:30.069Z,24.73
2023-05-04T08:07:30.069Z,24.72
2023-05-04T08:08:30.314Z,24.72
2023-05-04T08:09:30.128Z,24.74
2023-05-04T08:10:31.186Z,24.72
2023-05-04T08:11:30.139Z,24.72
2023-05-04T08:12:30.206Z,24.71
2023-05-04T08:13:30.333Z,24.70
2023-05-04T08:14:30.406Z,24.72
2023-05-04T08:15:30.169Z,24.71
2023-05-04T08:16:30.109Z,24.72
2023-05-04T08:17:30.124Z,24.73
2023-05-04T08:18:30.363Z,24.74
2023-05-04T08:19:30.081Z,24.75
2023-05-04T08:20:30.063Z,24.76
2023-05-04T08:21:31.148Z,24.76
2023-05-04T08:22:30.185Z,24.76
2023-05-04T08:23:30.333Z,24.76
2023-05-04T08:24:30.187Z,24.77
2023-05-04T08:25:30.251Z,24.77
2023-05-04T08:26:30.245Z,24.76
2023-05-04T08:27:30.324Z,24.77
2023-05-04T08:28:30.289Z,24.76
2023-05-04T08:29:30.354Z,24.78
2023-05-04T08:30:30.364Z,24.77
2023-05-04T08:31:30.421Z,24.77
2023-05-04T08:32:32.653Z,24.78
2023-05-04T08:33:30.458Z,24.78
2023-05-04T08:34:30.409Z,24.77
2023-05-04T08:35:30.415Z,24.76
2023-05-04T08:36:30.434Z,24.77
2023-05-04T08:37:30.380Z,24.78
2023-05-04T08:38:30.395Z,24.77
2023-05-04T08:39:30.421Z,24.77
2023-05-04T08:40:30.379Z,24.78
2023-05-04T08:41:30.415Z,24.78
2023-05-04T08:42:30.371Z,24.78
2023-05-04T08:43:30.374Z,24.75
2023-05-04T08:44:30.339Z,24.74
2023-05-04T08:45:30.385Z,24.74
2023-05-04T08:46:30.362Z,24.75
2023-05-04T08:47:30.332Z,24.75
2023-05-04T08:48:30.369Z,24.75
2023-05-04T08:49:30.356Z,24.72
2023-05-04T08:50:30.429Z,24.65
2023-05-04T08:51:30.328Z,24.64
2023-05-04T08:52:30.316Z,24.66
2023-05-04T08:53:30.305Z,24.66
2023-05-04T08:54:30.250Z,24.62
2023-05-04T08:55:30.322Z,24.60
2023-05-04T08:56:30.250Z,24.60
2023-05-04T08:57:30.294Z,24.60
2023-05-04T08:58:30.279Z,24.57
2023-05-04T08:59:30.288Z,24.56
2023-05-04T09:00:30.268Z,24.59
2023-05-04T09:01:30.351Z,24.63
2023-05-04T09:02:30.286Z,24.62
2023-05-04T09:03:30.437Z,24.64
2023-05-04T09:04:30.234Z,24.64
2023-05-04T09:05:30.221Z,24.66
2023-05-04T09:06:30.210Z,24.69
2023-05-04T09:07:30.210Z,24.68
2023-05-04T09:08:30.200Z,24.70
2023-05-04T09:09:30.215Z,24.69
2023-05-04T09:10:30.222Z,24.70
2023-05-04T09:11:30.195Z,24.71
2023-05-04T09:12:30.210Z,24.70
2023-05-04T09:13:30.156Z,24.71
2023-05-04T09:14:30.180Z,24.69
2023-05-04T09:15:30.146Z,24.70
2023-05-04T09:16:30.182Z,24.70
2023-05-04T09:17:30.202Z,24.68
2023-05-04T09:18:30.171Z,24.68
2023-05-04T09:19:30.096Z,24.67
2023-05-04T09:20:30.131Z,24.68
2023-05-04T09:21:30.130Z,24.68
2023-05-04T09:22:30.118Z,24.70
2023-05-04T09:23:30.074Z,24.72
2023-05-04T09:24:30.107Z,24.71
2023-05-04T09:25:30.110Z,24.71
2023-05-04T09:26:30.050Z,24.70
2023-05-04T09:27:30.035Z,24.72
2023-05-04T09:28:30.047Z,24.71
2023-05-04T09:29:30.048Z,24.71
2023-05-04T09:30:30.036Z,24.71
2023-05-04T09:31:30.919Z,24.70
2023-05-04T09:32:30.117Z,24.70
2023-05-04T09:33:30.166Z,24.69
2023-05-04T09:34:30.160Z,24.69
2023-05-04T09:35:33.609Z,24.68
2023-05-04T09:36:30.199Z,24.68
2023-05-04T09:37:30.234Z,24.67
2023-05-04T09:38:30.249Z,24.70
2023-05-04T09:39:30.201Z,24.71
2023-05-04T09:40:30.160Z,24.71
2023-05-04T09:41:30.137Z,24.71
2023-05-04T09:42:30.150Z,24.70
2023-05-04T09:43:30.159Z,24.70
2023-05-04T09:44:30.167Z,24.70
2023-05-04T09:45:30.106Z,24.70
2023-05-04T09:46:30.222Z,24.70
2023-05-04T09:47:30.196Z,24.70
2023-05-04T09:48:30.091Z,24.71
2023-05-04T09:49:30.112Z,24.71
2023-05-04T09:50:30.099Z,24.65
2023-05-04T09:51:30.119Z,24.59
2023-05-04T09:52:30.066Z,24.56
2023-05-04T09:53:30.074Z,24.55
2023-05-04T09:54:30.104Z,24.58
2023-05-04T09:55:30.067Z,24.59
2023-05-04T09:56:30.057Z,24.61
2023-05-04T09:57:30.077Z,24.64
2023-05-04T09:58:30.115Z,24.64
2023-05-04T09:59:30.049Z,24.66
2023-05-04T10:00:30.020Z,24.65
2023-05-04T10:01:30.115Z,24.64
2023-05-04T10:02:30.082Z,24.64
2023-05-04T10:03:30.053Z,24.64
2023-05-04T10:04:30.002Z,24.66
2023-05-04T10:05:30.016Z,24.66
2023-05-04T10:06:30.013Z,24.67
2023-05-04T10:07:29.999Z,24.67
2023-05-04T10:08:29.999Z,24.68
2023-05-04T10:09:30.000Z,24.68
2023-05-04T10:10:30.007Z,24.68
2023-05-04T10:11:29.962Z,24.69
2023-05-04T10:12:29.995Z,24.69
2023-05-04T10:13:30.361Z,24.70
2023-05-04T10:14:29.942Z,24.70
2023-05-04T10:15:29.957Z,24.71
2023-05-04T10:16:29.977Z,24.72
2023-05-04T10:17:29.921Z,24.71
2023-05-04T10:18:29.913Z,24.72
2023-05-04T10:19:29.888Z,24.74
2023-05-04T10:20:29.892Z,24.74
2023-05-04T10:21:29.890Z,24.75
2023-05-04T10:22:29.935Z,24.76
2023-05-04T10:23:29.970Z,24.76
2023-05-04T10:24:29.976Z,24.75
2023-05-04T10:25:29.991Z,24.76
2023-05-04T10:26:30.051Z,24.75
2023-05-04T10:27:30.070Z,24.75
2023-05-04T10:28:30.105Z,24.74
2023-05-04T10:29:30.142Z,24.75
2023-05-04T10:30:30.161Z,24.76
2023-05-04T10:31:30.229Z,24.76
2023-05-04T10:32:30.252Z,24.78
2023-05-04T10:33:30.176Z,24.78
2023-05-04T10:34:30.186Z,24.78
2023-05-04T10:35:30.245Z,24.80
2023-05-04T10:36:30.280Z,24.80
2023-05-04T10:37:30.307Z,24.81
2023-05-04T10:38:30.321Z,24.80
2023-05-04T10:39:30.360Z,24.79
2023-05-04T10:40:30.387Z,24.79
2023-05-04T10:41:30.387Z,24.82
2023-05-04T10:42:30.462Z,24.83
2023-05-04T10:43:30.461Z,24.81
2023-05-04T10:44:30.637Z,24.82
2023-05-04T10:45:30.485Z,24.81
2023-05-04T10:46:30.505Z,24.81
2023-05-04T10:47:30.524Z,24.79
2023-05-04T10:48:30.543Z,24.76
2023-05-04T10:49:30.563Z,24.73
2023-05-04T10:50:31.398Z,24.70
2023-05-04T10:51:39.046Z,24.68
2023-05-04T10:52:31.661Z,24.66
2023-05-04T10:53:30.777Z,24.63
2023-05-04T10:54:30.609Z,24.61
2023-05-04T10:55:30.581Z,24.59
2023-05-04T10:56:30.601Z,24.59
2023-05-04T10:57:30.590Z,24.57
2023-05-04T10:58:30.551Z,24.56
2023-05-04T10:59:30.592Z,24.53
2023-05-04T11:00:30.580Z,24.53
2023-05-04T11:01:30.605Z,24.51
2023-05-04T11:02:33.264Z,24.50
2023-05-04T11:03:30.787Z,24.48
2023-05-04T11:04:30.658Z,24.46
2023-05-04T11:05:30.636Z,24.45
2023-05-04T11:06:30.621Z,24.44
2023-05-04T11:07:30.713Z,24.43
2023-05-04T11:08:30.596Z,24.44
2023-05-04T11:09:30.597Z,24.44
2023-05-04T11:10:30.587Z,24.44
2023-05-04T11:11:30.744Z,24.42
2023-05-04T11:12:30.596Z,24.40
2023-05-04T11:13:30.569Z,24.39
2023-05-04T11:14:30.880Z,24.38
2023-05-04T11:15:30.553Z,24.36
2023-05-04T11:16:30.575Z,24.35
2023-05-04T11:17:30.547Z,24.34
2023-05-04T11:18:30.611Z,24.34
2023-05-04T11:19:30.523Z,24.33
2023-05-04T11:20:30.597Z,24.32
2023-05-04T11:21:30.538Z,24.31
2023-05-04T11:22:30.529Z,24.31
2023-05-04T11:23:30.504Z,24.30
2023-05-04T11:24:30.486Z,24.29
2023-05-04T11:25:30.482Z,24.29
2023-05-04T11:26:30.480Z,24.28
2023-05-04T11:27:30.467Z,24.27
2023-05-04T11:28:30.460Z,24.27
2023-05-04T11:29:30.467Z,24.26
2023-05-04T11:30:30.498Z,24.26
2023-05-04T11:31:30.484Z,24.25
2023-05-04T11:32:30.452Z,24.24
2023-05-04T11:33:30.445Z,24.24
2023-05-04T11:34:30.891Z,24.24
2023-05-04T11:35:30.423Z,24.23
2023-05-04T11:36:30.460Z,24.24
2023-05-04T11:37:30.400Z,24.23
2023-05-04T11:38:30.398Z,24.22
2023-05-04T11:39:30.396Z,24.22
2023-05-04T11:40:30.374Z,24.21
2023-05-04T11:41:30.373Z,24.21
2023-05-04T11:42:30.390Z,24.20
2023-05-04T11:43:30.365Z,24.20
2023-05-04T11:44:30.359Z,24.19
2023-05-04T11:45:30.379Z,24.19
2023-05-04T11:46:30.408Z,24.18
2023-05-04T11:47:30.374Z,24.17
2023-05-04T11:48:30.384Z,24.17
2023-05-04T11:49:30.355Z,24.16
2023-05-04T11:50:30.364Z,24.15
2023-05-04T11:51:30.354Z,24.15
2023-05-04T11:52:30.312Z,24.15
2023-05-04T11:53:30.284Z,24.15
2023-05-04T11:54:30.431Z,24.15
2023-05-04T11:55:30.277Z,24.15
2023-05-04T11:56:30.300Z,24.14
2023-05-04T11:57:30.246Z,24.14
2023-05-04T11:58:30.311Z,24.14
2023-05-04T11:59:30.419Z,24.14
2023-05-04T12:00:30.283Z,24.13
2023-05-04T12:01:30.224Z,24.13
2023-05-04T12:02:30.307Z,24.13
2023-05-04T12:03:47.924Z,24.13
2023-05-04T12:04:31.377Z,24.12
2023-05-04T12:05:30.259Z,24.12
2023-05-04T12:06:30.273Z,24.13
2023-05-04T12:07:30.199Z,24.12
2023-05-04T12:08:30.207Z,24.12
2023-05-04T12:09:30.402Z,24.12
2023-05-04T12:10:30.220Z,24.12
2023-05-04T12:11:30.193Z,24.12
2023-05-04T12:12:32.849Z,24.11
2023-05-04T12:13:30.178Z,24.11
2023-05-04T12:14:30.144Z,24.12
2023-05-04T12:15:30.167Z,24.12
2023-05-04T12:16:30.167Z,24.13
2023-05-04T12:17:30.183Z,24.13
2023-05-04T12:18:30.174Z,24.13
2023-05-04T12:19:30.144Z,24.13
2023-05-04T12:20:30.086Z,24.15
2023-05-04T12:21:30.089Z,24.14
2023-05-04T12:22:30.092Z,24.14
2023-05-04T12:23:30.185Z,24.15
2023-05-04T12:24:30.438Z,24.15
2023-05-04T12:25:30.188Z,24.15
2023-05-04T12:26:30.086Z,24.17
2023-05-04T12:27:30.085Z,24.17
2023-05-04T12:28:30.034Z,24.18
2023-05-04T12:29:30.064Z,24.18
2023-05-04T12:30:30.045Z,24.17
2023-05-04T12:31:30.044Z,24.18
2023-05-04T12:32:30.054Z,24.19
2023-05-04T12:33:30.012Z,24.19
2023-05-04T12:34:29.988Z,24.20
2023-05-04T12:35:30.015Z,24.20
2023-05-04T12:36:30.011Z,24.22
2023-05-04T12:37:30.009Z,24.23
2023-05-04T12:38:30.019Z,24.23
2023-05-04T12:39:29.969Z,24.24
2023-05-04T12:40:29.989Z,24.26
2023-05-04T12:41:29.986Z,24.26
2023-05-04T12:42:29.935Z,24.25
2023-05-04T12:43:29.952Z,24.27
2023-05-04T12:44:29.933Z,24.28
2023-05-04T12:45:29.935Z,24.29
2023-05-04T12:46:30.095Z,24.30
2023-05-04T12:47:29.955Z,24.31
2023-05-04T12:48:29.935Z,24.31
2023-05-04T12:49:30.453Z,24.33
2023-05-04T12:50:29.886Z,24.34
2023-05-04T12:51:29.883Z,24.36
2023-05-04T12:52:29.895Z,24.37